PBD4530 UUEE-UWLL
Flight info
| Callsign | PBD4530 |
|---|---|
| Flight time | N/A |
| Altitude | 37000 |
| Route | KOGOM3H KOGOM L94 EKPIR M864 IBROT T784 OTKOL T787 OKSUD T778 TERDI TERDI1F |
| Aircraft | B738/M-SDE2E3FGHIRWXY/LB1 |
Departure
| Time | 2026-04-30 12:54 |
|---|---|
| Airport | Sheremetyevo International Airport (UUEE) |
Arrival
| Time | N/A |
|---|---|
| Airport | Ulyanovsk Baratayevka Airport (UWLL) |
| Time | Latitude | Longitude | Altitude | Speed | Heading |
|---|---|---|---|---|---|
| 2026-04-30 12:32 | 55.96431 | 37.40676 | 627 ft | 0 kts | 250° |
| 2026-04-30 12:42 | 55.96432 | 37.40683 | 627 ft | 2 kts | 248° |
| 2026-04-30 12:43 | 55.96439 | 37.40706 | 626 ft | 2 kts | 242° |
| 2026-04-30 12:43 | 55.96445 | 37.40730 | 625 ft | 2 kts | 245° |
| 2026-04-30 12:43 | 55.96452 | 37.40754 | 624 ft | 2 kts | 243° |
| 2026-04-30 12:43 | 55.96458 | 37.40778 | 624 ft | 2 kts | 244° |
| 2026-04-30 12:44 | 55.96464 | 37.40802 | 623 ft | 2 kts | 244° |
| 2026-04-30 12:44 | 55.96471 | 37.40827 | 623 ft | 2 kts | 244° |
| 2026-04-30 12:44 | 55.96478 | 37.40851 | 622 ft | 2 kts | 243° |
| 2026-04-30 12:44 | 55.96484 | 37.40875 | 620 ft | 2 kts | 244° |
| 2026-04-30 12:45 | 55.96488 | 37.40889 | 620 ft | 1 kts | 251° |
| 2026-04-30 12:45 | 55.96489 | 37.40892 | 619 ft | 0 kts | 253° |
| 2026-04-30 12:46 | 55.96486 | 37.40880 | 620 ft | 3 kts | 253° |
| 2026-04-30 12:47 | 55.96484 | 37.40863 | 621 ft | 2 kts | 255° |
| 2026-04-30 12:47 | 55.96492 | 37.40798 | 624 ft | 6 kts | 311° |
| 2026-04-30 12:47 | 55.96533 | 37.40762 | 624 ft | 9 kts | 344° |
| 2026-04-30 12:47 | 55.96599 | 37.40731 | 623 ft | 11 kts | 345° |
| 2026-04-30 12:48 | 55.96679 | 37.40693 | 622 ft | 11 kts | 344° |
| 2026-04-30 12:48 | 55.96758 | 37.40656 | 621 ft | 11 kts | 352° |
| 2026-04-30 12:48 | 55.96813 | 37.40736 | 618 ft | 12 kts | 74° |
| 2026-04-30 12:48 | 55.96842 | 37.40928 | 614 ft | 19 kts | 74° |
| 2026-04-30 12:49 | 55.96878 | 37.41169 | 613 ft | 19 kts | 75° |
| 2026-04-30 12:49 | 55.96913 | 37.41400 | 614 ft | 18 kts | 74° |
| 2026-04-30 12:49 | 55.96944 | 37.41607 | 614 ft | 17 kts | 75° |
| 2026-04-30 12:49 | 55.96977 | 37.41831 | 613 ft | 22 kts | 75° |
| 2026-04-30 12:50 | 55.97025 | 37.42140 | 607 ft | 27 kts | 71° |
| 2026-04-30 12:50 | 55.97071 | 37.42459 | 603 ft | 26 kts | 74° |
| 2026-04-30 12:50 | 55.97122 | 37.42787 | 598 ft | 26 kts | 73° |
| 2026-04-30 12:50 | 55.97152 | 37.42989 | 596 ft | 11 kts | 66° |
| 2026-04-30 12:51 | 55.97203 | 37.43040 | 596 ft | 8 kts | 350° |
| 2026-04-30 12:51 | 55.97290 | 37.43000 | 598 ft | 13 kts | 344° |
| 2026-04-30 12:51 | 55.97371 | 37.42961 | 601 ft | 11 kts | 345° |
| 2026-04-30 12:51 | 55.97460 | 37.42920 | 603 ft | 14 kts | 345° |
| 2026-04-30 12:52 | 55.97547 | 37.42880 | 605 ft | 11 kts | 344° |
| 2026-04-30 12:52 | 55.97590 | 37.42792 | 607 ft | 8 kts | 274° |
| 2026-04-30 12:52 | 55.97588 | 37.42761 | 607 ft | 0 kts | 258° |
| 2026-04-30 12:53 | 55.97587 | 37.42751 | 607 ft | 6 kts | 257° |
| 2026-04-30 12:53 | 55.97503 | 37.42173 | 613 ft | 88 kts | 253° |
| 2026-04-30 12:53 | 55.97282 | 37.40708 | 620 ft | 155 kts | 255° |
| 2026-04-30 12:54 | 55.96972 | 37.38719 | 1115 ft | 173 kts | 258° |
| 2026-04-30 12:54 | 55.96663 | 37.36607 | 1858 ft | 184 kts | 259° |
| 2026-04-30 12:54 | 55.96315 | 37.34295 | 2548 ft | 196 kts | 257° |
| 2026-04-30 12:54 | 55.95946 | 37.31900 | 3098 ft | 210 kts | 256° |
| 2026-04-30 12:55 | 55.95532 | 37.29298 | 3557 ft | 230 kts | 256° |
| 2026-04-30 12:55 | 55.95086 | 37.26484 | 4154 ft | 245 kts | 256° |
| 2026-04-30 12:55 | 55.94612 | 37.23519 | 4758 ft | 258 kts | 256° |
| 2026-04-30 12:55 | 55.94120 | 37.20423 | 5554 ft | 264 kts | 256° |
| 2026-04-30 12:56 | 55.93623 | 37.17269 | 6472 ft | 264 kts | 256° |
| 2026-04-30 12:56 | 55.93129 | 37.14124 | 7305 ft | 267 kts | 256° |
| 2026-04-30 12:56 | 55.92623 | 37.10923 | 8134 ft | 271 kts | 256° |
| 2026-04-30 12:56 | 55.92119 | 37.07715 | 8911 ft | 275 kts | 257° |
| 2026-04-30 12:57 | 55.91799 | 37.04386 | 9686 ft | 276 kts | 270° |
| 2026-04-30 12:57 | 55.92123 | 37.01020 | 10128 ft | 278 kts | 294° |
| 2026-04-30 12:57 | 55.93178 | 36.98195 | 10187 ft | 275 kts | 316° |
| 2026-04-30 12:57 | 55.94669 | 36.96085 | 10187 ft | 272 kts | 326° |
| 2026-04-30 12:58 | 55.96217 | 36.94211 | 10179 ft | 271 kts | 329° |
| 2026-04-30 12:58 | 55.97930 | 36.92766 | 10183 ft | 271 kts | 345° |
| 2026-04-30 12:58 | 55.99797 | 36.92471 | 10193 ft | 272 kts | 5° |
| 2026-04-30 12:58 | 56.01665 | 36.93260 | 10736 ft | 282 kts | 19° |
| 2026-04-30 12:59 | 56.03406 | 36.94703 | 11725 ft | 279 kts | 28° |
| 2026-04-30 12:59 | 56.05045 | 36.96547 | 12445 ft | 284 kts | 32° |
| 2026-04-30 12:59 | 56.06667 | 36.98551 | 13195 ft | 287 kts | 33° |
| 2026-04-30 12:59 | 56.08316 | 37.00581 | 13917 ft | 290 kts | 32° |
| 2026-04-30 13:00 | 56.09992 | 37.02632 | 14172 ft | 294 kts | 34° |
| 2026-04-30 13:00 | 56.11504 | 37.05097 | 14181 ft | 294 kts | 50° |
| 2026-04-30 13:00 | 56.12470 | 37.08406 | 14290 ft | 313 kts | 71° |
| 2026-04-30 13:00 | 56.13016 | 37.12247 | 14778 ft | 324 kts | 74° |
| 2026-04-30 13:01 | 56.13539 | 37.16190 | 15135 ft | 330 kts | 74° |
| 2026-04-30 13:01 | 56.14079 | 37.20150 | 15169 ft | 327 kts | 74° |
| 2026-04-30 13:01 | 56.14495 | 37.24154 | 15178 ft | 328 kts | 82° |
| 2026-04-30 13:01 | 56.14389 | 37.28191 | 15176 ft | 331 kts | 100° |
| 2026-04-30 13:02 | 56.13559 | 37.32079 | 15179 ft | 335 kts | 117° |
| 2026-04-30 13:02 | 56.12192 | 37.35531 | 15598 ft | 345 kts | 129° |
| 2026-04-30 13:02 | 56.10465 | 37.38459 | 16502 ft | 344 kts | 143° |
| 2026-04-30 13:02 | 56.08405 | 37.40617 | 17149 ft | 349 kts | 153° |
| 2026-04-30 13:03 | 56.06188 | 37.42448 | 17794 ft | 353 kts | 155° |
| 2026-04-30 13:03 | 56.03952 | 37.44181 | 18443 ft | 357 kts | 156° |
| 2026-04-30 13:03 | 56.01672 | 37.45963 | 19053 ft | 361 kts | 155° |
| 2026-04-30 13:03 | 55.99390 | 37.47848 | 19670 ft | 364 kts | 151° |
| 2026-04-30 13:04 | 55.97274 | 37.50271 | 20126 ft | 369 kts | 140° |
| 2026-04-30 13:04 | 55.95403 | 37.53453 | 20174 ft | 367 kts | 128° |
| 2026-04-30 13:04 | 55.93967 | 37.57212 | 20375 ft | 370 kts | 115° |
| 2026-04-30 13:04 | 55.93032 | 37.61406 | 21189 ft | 364 kts | 103° |
| 2026-04-30 13:05 | 55.92448 | 37.65753 | 21729 ft | 366 kts | 99° |
| 2026-04-30 13:05 | 55.91945 | 37.70214 | 22279 ft | 369 kts | 100° |
| 2026-04-30 13:05 | 55.91316 | 37.74645 | 22822 ft | 373 kts | 106° |
| 2026-04-30 13:06 | 55.89138 | 37.83114 | 23845 ft | 382 kts | 117° |
| 2026-04-30 13:06 | 55.87823 | 37.87231 | 24315 ft | 386 kts | 118° |
| 2026-04-30 13:06 | 55.86474 | 37.91350 | 24809 ft | 389 kts | 118° |
| 2026-04-30 13:06 | 55.85112 | 37.95511 | 25265 ft | 391 kts | 118° |
| 2026-04-30 13:07 | 55.83752 | 37.99703 | 25708 ft | 394 kts | 118° |
| 2026-04-30 13:07 | 55.82402 | 38.03912 | 26141 ft | 396 kts | 117° |
| 2026-04-30 13:07 | 55.81117 | 38.08253 | 26541 ft | 398 kts | 113° |
| 2026-04-30 13:07 | 55.80141 | 38.12867 | 26916 ft | 399 kts | 102° |
| 2026-04-30 13:08 | 55.79651 | 38.17667 | 27127 ft | 404 kts | 92° |
| 2026-04-30 13:08 | 55.79551 | 38.22757 | 27199 ft | 414 kts | 87° |
| 2026-04-30 13:08 | 55.79640 | 38.27895 | 27258 ft | 425 kts | 85° |
| 2026-04-30 13:08 | 55.79819 | 38.33191 | 27321 ft | 435 kts | 83° |
| 2026-04-30 13:09 | 55.80236 | 38.38468 | 27553 ft | 440 kts | 77° |
| 2026-04-30 13:09 | 55.80905 | 38.43749 | 27935 ft | 440 kts | 73° |
| 2026-04-30 13:09 | 55.81711 | 38.49016 | 28253 ft | 442 kts | 71° |
| 2026-04-30 13:09 | 55.82587 | 38.54240 | 28559 ft | 445 kts | 71° |
| 2026-04-30 13:10 | 55.83503 | 38.59467 | 28887 ft | 447 kts | 70° |
| 2026-04-30 13:10 | 55.84447 | 38.64759 | 29229 ft | 449 kts | 70° |
| 2026-04-30 13:10 | 55.85422 | 38.70036 | 29521 ft | 451 kts | 69° |
| 2026-04-30 13:10 | 55.86560 | 38.75191 | 29858 ft | 451 kts | 65° |
| 2026-04-30 13:11 | 55.87817 | 38.80186 | 30367 ft | 446 kts | 63° |
| 2026-04-30 13:11 | 55.89146 | 38.85171 | 30751 ft | 444 kts | 62° |
| 2026-04-30 13:11 | 55.90482 | 38.90071 | 30982 ft | 446 kts | 62° |
| 2026-04-30 13:11 | 55.91849 | 38.95072 | 31281 ft | 446 kts | 62° |
| 2026-04-30 13:12 | 55.93192 | 39.00009 | 31553 ft | 446 kts | 63° |
| 2026-04-30 13:12 | 55.94479 | 39.05010 | 31819 ft | 448 kts | 65° |
| 2026-04-30 13:12 | 55.95541 | 39.10186 | 32081 ft | 450 kts | 71° |
| 2026-04-30 13:13 | 55.96836 | 39.21098 | 32634 ft | 453 kts | 80° |
| 2026-04-30 13:13 | 55.97232 | 39.26637 | 32913 ft | 453 kts | 82° |
| 2026-04-30 13:13 | 55.97846 | 39.37746 | 33455 ft | 453 kts | 83° |
| 2026-04-30 13:14 | 55.98124 | 39.43332 | 33746 ft | 454 kts | 83° |
| 2026-04-30 13:14 | 55.98398 | 39.48935 | 34045 ft | 454 kts | 83° |
| 2026-04-30 13:14 | 55.98990 | 39.60075 | 34631 ft | 453 kts | 81° |
| 2026-04-30 13:15 | 55.99508 | 39.65616 | 34906 ft | 452 kts | 76° |
| 2026-04-30 13:15 | 56.01499 | 39.76173 | 35424 ft | 450 kts | 64° |
| 2026-04-30 13:15 | 56.02834 | 39.81181 | 35640 ft | 451 kts | 64° |
| 2026-04-30 13:16 | 56.04001 | 39.86371 | 35868 ft | 452 kts | 70° |
| 2026-04-30 13:16 | 56.04847 | 39.91752 | 36093 ft | 453 kts | 77° |
| 2026-04-30 13:16 | 56.05360 | 39.97312 | 36308 ft | 455 kts | 83° |
| 2026-04-30 13:17 | 56.05345 | 40.08580 | 36727 ft | 457 kts | 95° |
| 2026-04-30 13:17 | 56.04952 | 40.14156 | 36925 ft | 458 kts | 96° |
| 2026-04-30 13:17 | 56.04356 | 40.23642 | 37129 ft | 461 kts | 94° |
| 2026-04-30 13:18 | 56.04059 | 40.31211 | 37136 ft | 460 kts | 91° |
| 2026-04-30 13:18 | 56.03844 | 40.48225 | 37140 ft | 459 kts | 89° |
| 2026-04-30 13:19 | 56.03875 | 40.59625 | 37141 ft | 459 kts | 88° |
| 2026-04-30 13:19 | 56.03947 | 40.70984 | 37143 ft | 459 kts | 89° |
| 2026-04-30 13:20 | 56.04025 | 40.82302 | 37144 ft | 459 kts | 89° |
| 2026-04-30 13:20 | 56.04097 | 40.93644 | 37143 ft | 458 kts | 89° |
| 2026-04-30 13:21 | 56.04160 | 41.05016 | 37141 ft | 458 kts | 89° |
| 2026-04-30 13:22 | 56.04236 | 41.22045 | 37137 ft | 460 kts | 89° |
| 2026-04-30 13:22 | 56.04288 | 41.39185 | 37132 ft | 460 kts | 89° |
| 2026-04-30 13:23 | 56.04316 | 41.56231 | 37132 ft | 460 kts | 89° |
| 2026-04-30 13:24 | 56.04316 | 41.78956 | 37126 ft | 459 kts | 90° |
| 2026-04-30 13:25 | 56.04277 | 42.01751 | 37122 ft | 459 kts | 90° |
| 2026-04-30 13:26 | 56.04162 | 42.30173 | 37121 ft | 460 kts | 92° |
| 2026-04-30 13:27 | 56.03001 | 42.41372 | 37124 ft | 459 kts | 106° |
| 2026-04-30 13:28 | 55.99973 | 42.57512 | 37123 ft | 460 kts | 109° |
| 2026-04-30 13:28 | 55.96913 | 42.73647 | 37121 ft | 460 kts | 109° |
| 2026-04-30 13:29 | 55.92987 | 42.95271 | 37121 ft | 460 kts | 108° |
| 2026-04-30 13:31 | 55.88124 | 43.22291 | 37119 ft | 460 kts | 108° |
| 2026-04-30 13:32 | 55.83207 | 43.49294 | 37115 ft | 460 kts | 109° |
| 2026-04-30 13:33 | 55.79236 | 43.70815 | 37116 ft | 460 kts | 109° |
| 2026-04-30 13:34 | 55.76237 | 43.86913 | 37113 ft | 461 kts | 110° |
| 2026-04-30 13:35 | 55.72185 | 44.08449 | 37116 ft | 461 kts | 110° |
| 2026-04-30 13:36 | 55.68108 | 44.29875 | 37117 ft | 460 kts | 110° |
| 2026-04-30 13:36 | 55.65021 | 44.45935 | 37119 ft | 460 kts | 110° |
| 2026-04-30 13:37 | 55.61917 | 44.61948 | 37116 ft | 460 kts | 110° |
| 2026-04-30 13:38 | 55.58789 | 44.77937 | 37118 ft | 460 kts | 111° |
| 2026-04-30 13:38 | 55.56092 | 44.88046 | 37113 ft | 456 kts | 127° |
| 2026-04-30 13:39 | 55.51855 | 44.96269 | 37115 ft | 453 kts | 138° |
| 2026-04-30 13:40 | 55.44890 | 45.07432 | 37117 ft | 452 kts | 140° |
| 2026-04-30 13:40 | 55.40249 | 45.14782 | 37113 ft | 452 kts | 140° |
| 2026-04-30 13:41 | 55.35605 | 45.22193 | 37122 ft | 452 kts | 139° |
| 2026-04-30 13:41 | 55.30989 | 45.29590 | 37116 ft | 451 kts | 139° |
| 2026-04-30 13:42 | 55.26351 | 45.37033 | 37115 ft | 452 kts | 139° |
| 2026-04-30 13:42 | 55.19430 | 45.48116 | 37114 ft | 452 kts | 139° |
| 2026-04-30 13:43 | 55.17867 | 45.50612 | 37114 ft | 451 kts | 139° |